createdAt,value
2023-03-10T00:01:48.905Z,2.70
2023-03-10T00:04:19.240Z,2.82
2023-03-10T00:06:48.299Z,3.46
2023-03-10T00:09:17.270Z,2.70
2023-03-10T00:11:46.614Z,2.83
2023-03-10T00:14:15.628Z,2.38
2023-03-10T00:16:47.664Z,2.46
2023-03-10T00:19:18.396Z,2.01
2023-03-10T00:21:47.606Z,2.45
2023-03-10T00:24:16.564Z,2.70
2023-03-10T00:26:45.809Z,2.58
2023-03-10T00:29:15.163Z,2.62
2023-03-10T00:31:44.203Z,2.45
2023-03-10T00:34:13.961Z,2.83
2023-03-10T00:36:44.849Z,2.68
2023-03-10T00:39:14.202Z,2.28
2023-03-10T00:41:43.278Z,2.35
2023-03-10T00:44:13.314Z,2.46
2023-03-10T00:46:42.473Z,2.30
2023-03-10T00:49:16.587Z,2.26
2023-03-10T00:51:47.000Z,2.69
2023-03-10T00:54:16.484Z,2.61
2023-03-10T00:56:45.479Z,2.21
2023-03-10T00:59:14.746Z,2.24
2023-03-10T01:01:44.324Z,2.16
2023-03-10T01:04:16.628Z,2.79
2023-03-10T01:06:52.889Z,2.71
2023-03-10T01:09:22.782Z,2.08
2023-03-10T01:11:51.957Z,2.59
2023-03-10T01:14:21.679Z,2.20
2023-03-10T01:16:51.182Z,2.11
2023-03-10T01:19:20.676Z,2.36
2023-03-10T01:21:50.969Z,2.17
2023-03-10T01:24:20.073Z,2.41
2023-03-10T01:26:49.122Z,2.22
2023-03-10T01:29:18.151Z,2.13
2023-03-10T01:31:48.700Z,2.35
2023-03-10T01:34:18.024Z,2.25
2023-03-10T01:36:47.215Z,1.50
2023-03-10T01:39:18.928Z,2.48
2023-03-10T01:41:48.252Z,1.95
2023-03-10T01:44:20.215Z,2.00
2023-03-10T01:46:51.430Z,1.95
2023-03-10T01:49:41.751Z,2.46
2023-03-10T01:52:17.720Z,2.21
2023-03-10T01:54:51.798Z,1.91
2023-03-10T01:57:25.930Z,2.14
2023-03-10T01:59:56.979Z,2.53
2023-03-10T02:02:27.380Z,2.43
2023-03-10T02:04:59.717Z,2.24
2023-03-10T02:07:35.680Z,2.20
2023-03-10T02:10:07.752Z,2.21
2023-03-10T02:12:38.381Z,1.88
2023-03-10T02:15:08.857Z,2.23
2023-03-10T02:17:38.939Z,1.62
2023-03-10T02:20:22.296Z,1.61
2023-03-10T02:22:52.226Z,1.89
2023-03-10T02:25:34.933Z,1.91
2023-03-10T02:28:06.653Z,2.17
2023-03-10T02:30:39.025Z,2.08
2023-03-10T02:33:12.674Z,1.89
2023-03-10T02:35:42.375Z,2.30
2023-03-10T02:38:15.531Z,2.08
2023-03-10T02:40:47.483Z,2.27
2023-03-10T02:43:25.098Z,1.91
2023-03-10T02:46:06.293Z,2.00
2023-03-10T02:48:40.416Z,2.12
2023-03-10T02:51:17.655Z,1.89
2023-03-10T02:53:47.107Z,1.89
2023-03-10T02:56:17.285Z,1.91
2023-03-10T02:58:50.184Z,1.81
2023-03-10T03:01:19.348Z,1.92
2023-03-10T03:03:48.592Z,2.01
2023-03-10T03:06:17.808Z,1.90
2023-03-10T03:08:47.643Z,1.82
2023-03-10T03:11:19.504Z,1.96
2023-03-10T03:13:51.106Z,1.67
2023-03-10T03:16:20.341Z,1.81
2023-03-10T03:18:54.310Z,1.71
2023-03-10T03:21:26.091Z,1.92
2023-03-10T03:23:56.375Z,1.84
2023-03-10T03:26:28.114Z,1.88
2023-03-10T03:29:03.964Z,2.06
2023-03-10T03:31:36.227Z,1.81
2023-03-10T03:34:12.861Z,1.74
2023-03-10T03:36:42.104Z,1.86
2023-03-10T03:39:17.466Z,1.53
2023-03-10T03:41:53.438Z,1.55
2023-03-10T03:44:24.661Z,1.70
2023-03-10T03:46:54.868Z,1.80
2023-03-10T03:49:25.280Z,1.50
2023-03-10T03:51:54.610Z,1.85
2023-03-10T03:54:25.717Z,1.88
2023-03-10T03:56:56.134Z,1.65
2023-03-10T03:59:26.881Z,1.86
2023-03-10T04:01:57.180Z,1.78
2023-03-10T04:04:27.472Z,2.05
2023-03-10T04:06:57.903Z,1.83
2023-03-10T04:09:27.171Z,1.97
2023-03-10T04:11:56.354Z,1.71
2023-03-10T04:14:27.423Z,1.85
2023-03-10T04:16:58.220Z,2.32
2023-03-10T04:19:27.565Z,2.10
2023-03-10T04:22:02.617Z,2.10
2023-03-10T04:24:34.164Z,2.10
2023-03-10T04:27:03.510Z,2.42
2023-03-10T04:29:34.130Z,2.25
2023-03-10T04:32:05.818Z,2.57
2023-03-10T04:34:40.107Z,2.36
2023-03-10T04:37:10.501Z,2.28
2023-03-10T04:39:40.319Z,2.15
2023-03-10T04:42:10.280Z,2.23
2023-03-10T04:44:41.154Z,2.62
2023-03-10T04:47:10.456Z,2.21
2023-03-10T04:49:39.894Z,2.25
2023-03-10T04:52:14.437Z,2.25
2023-03-10T04:54:44.702Z,2.46
2023-03-10T04:57:14.065Z,2.59
2023-03-10T04:59:45.681Z,2.42
2023-03-10T05:02:15.170Z,1.82
2023-03-10T05:04:44.672Z,1.78
2023-03-10T05:07:14.324Z,2.08
2023-03-10T05:09:49.729Z,2.41
2023-03-10T05:12:19.376Z,2.59
2023-03-10T05:14:50.479Z,2.08
2023-03-10T05:17:19.843Z,2.28
2023-03-10T05:19:50.321Z,2.31
2023-03-10T05:22:20.215Z,2.63
2023-03-10T05:24:50.391Z,2.58
2023-03-10T05:27:22.109Z,2.56
2023-03-10T05:29:53.945Z,2.48
2023-03-10T05:32:26.955Z,2.64
2023-03-10T05:34:57.572Z,2.54
2023-03-10T05:37:27.619Z,2.55
2023-03-10T05:39:59.431Z,2.72
2023-03-10T05:42:28.608Z,2.91
2023-03-10T05:44:59.566Z,2.71
2023-03-10T05:47:29.104Z,2.59
2023-03-10T05:49:58.305Z,2.60
2023-03-10T05:52:31.307Z,3.18
2023-03-10T05:55:03.232Z,3.26
2023-03-10T05:57:32.397Z,3.22
2023-03-10T06:00:03.307Z,3.05
2023-03-10T06:02:42.912Z,3.16
2023-03-10T06:05:17.619Z,2.84
2023-03-10T06:07:57.652Z,2.98
2023-03-10T06:10:29.010Z,2.01
2023-03-10T06:13:10.609Z,2.88
2023-03-10T06:16:08.085Z,2.48
2023-03-10T06:18:38.592Z,1.50
2023-03-10T06:21:19.288Z,2.66
2023-03-10T06:23:48.783Z,2.64
2023-03-10T06:26:32.522Z,3.17
2023-03-10T06:29:04.283Z,3.37
2023-03-10T06:31:35.328Z,3.34
2023-03-10T06:34:07.991Z,3.25
2023-03-10T06:36:40.623Z,3.88
2023-03-10T06:39:10.522Z,2.94
2023-03-10T06:41:39.846Z,3.84
2023-03-10T06:46:59.681Z,4.26
2023-03-10T06:49:31.373Z,4.60
2023-03-10T06:52:01.139Z,4.25
2023-03-10T06:54:32.118Z,4.90
2023-03-10T06:57:03.503Z,4.91
2023-03-10T06:59:33.044Z,4.77
2023-03-10T07:02:09.214Z,4.50
2023-03-10T07:04:41.564Z,4.69
2023-03-10T07:07:29.298Z,4.40
2023-03-10T07:09:58.820Z,4.97
2023-03-10T07:12:30.098Z,3.91
2023-03-10T07:15:00.585Z,4.45
2023-03-10T07:17:31.601Z,4.92
2023-03-10T07:20:01.608Z,4.97
2023-03-10T07:22:31.125Z,5.09
2023-03-10T07:25:00.267Z,5.35
2023-03-10T07:27:35.644Z,5.12
2023-03-10T07:30:05.428Z,4.94
2023-03-10T07:32:38.485Z,4.88
2023-03-10T07:35:12.149Z,5.31
2023-03-10T07:37:51.494Z,3.74
2023-03-10T07:40:25.153Z,4.20
2023-03-10T07:42:56.511Z,4.28
2023-03-10T07:45:33.289Z,4.14
2023-03-10T07:48:03.850Z,4.54
2023-03-10T07:50:33.273Z,4.91
2023-03-10T07:53:03.976Z,5.06
2023-03-10T07:55:36.621Z,4.72
2023-03-10T07:58:06.047Z,5.34
2023-03-10T08:00:38.670Z,4.95
2023-03-10T08:03:09.424Z,4.36
2023-03-10T08:05:43.467Z,4.88
2023-03-10T08:08:12.776Z,5.28
2023-03-10T08:10:42.547Z,5.09
2023-03-10T08:13:12.239Z,5.10
2023-03-10T08:15:46.571Z,5.29
2023-03-10T08:18:17.424Z,5.66
2023-03-10T08:20:46.919Z,5.80
2023-03-10T08:23:16.211Z,5.98
2023-03-10T08:25:45.509Z,5.96
2023-03-10T08:28:14.957Z,5.51
2023-03-10T08:31:02.493Z,5.60
2023-03-10T08:33:36.178Z,5.93
2023-03-10T08:36:11.141Z,6.05
2023-03-10T08:38:41.144Z,5.92
2023-03-10T08:41:18.299Z,6.11
2023-03-10T08:43:49.298Z,7.02
2023-03-10T08:46:32.025Z,7.23
2023-03-10T08:49:33.459Z,7.46
2023-03-10T08:52:11.407Z,7.60
2023-03-10T08:54:41.140Z,7.31
2023-03-10T08:57:11.670Z,7.30
2023-03-10T08:59:51.736Z,6.41
2023-03-10T09:02:26.853Z,6.73
2023-03-10T09:05:00.401Z,6.90
2023-03-10T09:07:31.552Z,7.17
2023-03-10T09:10:01.540Z,7.15
2023-03-10T09:12:36.849Z,6.82
2023-03-10T09:15:08.432Z,7.29
2023-03-10T09:17:41.021Z,7.72
2023-03-10T09:20:12.915Z,8.23
2023-03-10T09:22:42.891Z,7.76
2023-03-10T09:25:12.559Z,8.79
2023-03-10T09:27:46.812Z,8.65
2023-03-10T09:30:19.233Z,8.65
2023-03-10T09:32:48.466Z,6.48
2023-03-10T09:35:19.733Z,6.65
2023-03-10T09:37:48.780Z,7.53
2023-03-10T09:40:22.554Z,8.24
2023-03-10T09:42:58.414Z,7.97
2023-03-10T09:45:37.490Z,7.97
2023-03-10T09:52:28.967Z,6.99
2023-03-10T09:55:08.531Z,7.02
2023-03-10T09:57:39.899Z,7.92
2023-03-10T10:03:59.684Z,7.59
2023-03-10T10:06:46.670Z,6.90
2023-03-10T10:09:30.469Z,7.62
2023-03-10T10:12:08.133Z,7.25
2023-03-10T10:14:40.340Z,7.65
2023-03-10T10:17:24.354Z,7.36
2023-03-10T10:19:54.700Z,7.99
2023-03-10T10:22:28.355Z,7.50
2023-03-10T10:25:15.550Z,7.55
2023-03-10T10:27:52.906Z,7.21
2023-03-10T10:30:31.820Z,7.49
2023-03-10T10:33:03.339Z,7.86
2023-03-10T10:35:35.452Z,7.87
2023-03-10T10:38:07.003Z,8.37
2023-03-10T10:40:48.261Z,7.27
2023-03-10T10:43:19.837Z,6.67
2023-03-10T10:45:55.318Z,7.33
2023-03-10T10:48:41.192Z,6.25
2023-03-10T10:51:22.107Z,6.94
2023-03-10T10:53:51.860Z,6.97
2023-03-10T10:56:24.201Z,7.87
2023-03-10T10:59:05.496Z,7.81
2023-03-10T11:01:52.942Z,7.87
2023-03-10T11:04:23.590Z,7.76
2023-03-10T11:06:54.145Z,8.04
2023-03-10T11:09:27.624Z,7.75
2023-03-10T11:12:06.935Z,8.14
2023-03-10T11:14:45.968Z,8.17
2023-03-10T11:17:23.336Z,7.64
2023-03-10T11:20:06.702Z,8.30
2023-03-10T11:22:43.298Z,8.83
2023-03-10T11:25:21.799Z,8.11
2023-03-10T11:28:02.468Z,8.29
2023-03-10T11:30:34.980Z,7.49
2023-03-10T11:33:15.319Z,9.21
2023-03-10T11:35:47.156Z,8.70
2023-03-10T11:38:47.299Z,9.02
2023-03-10T11:41:25.136Z,8.85
2023-03-10T11:44:01.827Z,8.50
2023-03-10T11:46:37.627Z,8.31
2023-03-10T11:49:12.426Z,7.92
2023-03-10T11:51:47.018Z,6.81
2023-03-10T11:54:21.449Z,7.73
2023-03-10T11:57:18.505Z,7.55
2023-03-10T11:59:54.666Z,7.67
2023-03-10T12:02:28.254Z,7.90
2023-03-10T12:05:03.208Z,7.63
2023-03-10T12:07:37.792Z,8.00
2023-03-10T12:10:16.923Z,6.82
2023-03-10T12:12:50.908Z,7.72
2023-03-10T12:15:24.971Z,8.45
2023-03-10T12:17:55.529Z,8.58
2023-03-10T12:20:29.076Z,8.37
2023-03-10T12:22:59.847Z,8.34
2023-03-10T12:25:46.869Z,9.19
2023-03-10T12:28:34.033Z,8.96
2023-03-10T12:31:55.308Z,9.22
2023-03-10T12:34:36.378Z,9.93
2023-03-10T12:37:25.729Z,10.92
2023-03-10T12:40:31.400Z,9.54
2023-03-10T12:43:53.244Z,9.82
2023-03-10T12:46:40.644Z,9.92
2023-03-10T12:49:33.022Z,10.30
2023-03-10T12:52:24.878Z,9.64
2023-03-10T12:55:04.624Z,10.11
2023-03-10T13:06:32.700Z,13.80
2023-03-10T13:09:52.936Z,12.84
2023-03-10T13:12:35.267Z,14.91
2023-03-10T13:15:08.598Z,15.73
2023-03-10T13:17:38.138Z,18.18
2023-03-10T13:20:17.440Z,19.46
2023-03-10T13:22:55.093Z,20.03
2023-03-10T13:25:25.221Z,19.45
2023-03-10T13:27:57.618Z,15.30
2023-03-10T13:30:30.660Z,16.01
2023-03-10T13:33:04.575Z,14.87
2023-03-10T13:35:38.257Z,18.06
2023-03-10T13:38:14.202Z,20.05
2023-03-10T13:40:46.215Z,19.31
2023-03-10T13:43:34.390Z,20.70
2023-03-10T13:46:10.188Z,21.17
2023-03-10T13:48:42.558Z,20.94
2023-03-10T13:51:32.280Z,20.29
2023-03-10T13:56:46.419Z,20.18
2023-03-10T13:58:40.895Z,20.18
2023-03-10T14:01:23.230Z,20.78
2023-03-10T14:04:08.141Z,20.29
2023-03-10T14:06:42.175Z,19.03
2023-03-10T14:09:23.791Z,19.49
2023-03-10T14:12:01.027Z,20.41
2023-03-10T14:14:32.613Z,19.08
2023-03-10T14:17:04.160Z,14.88
2023-03-10T14:19:48.649Z,12.49
2023-03-10T14:22:38.060Z,10.65
2023-03-10T14:25:14.308Z,10.26
2023-03-10T14:27:46.061Z,10.02
2023-03-10T14:30:25.584Z,10.46
2023-03-10T14:32:56.250Z,10.65
2023-03-10T14:35:27.012Z,11.40
2023-03-10T14:37:57.891Z,11.80
2023-03-10T14:40:30.070Z,11.18
2023-03-10T14:43:01.785Z,12.32
2023-03-10T14:45:34.012Z,14.07
2023-03-10T14:48:07.577Z,13.57
2023-03-10T14:50:36.829Z,13.20
2023-03-10T14:53:10.353Z,13.09
2023-03-10T14:55:40.131Z,11.12
2023-03-10T14:58:15.170Z,12.10
2023-03-10T15:00:44.581Z,13.14
2023-03-10T15:03:17.622Z,10.58
2023-03-10T15:06:57.810Z,9.53
2023-03-10T15:09:28.824Z,8.98
2023-03-10T15:11:59.818Z,8.68
2023-03-10T15:14:31.690Z,8.21
2023-03-10T15:17:04.299Z,7.84
2023-03-10T15:19:35.211Z,7.44
2023-03-10T15:22:05.117Z,7.68
2023-03-10T15:24:36.500Z,7.72
2023-03-10T15:27:06.546Z,7.80
2023-03-10T15:29:36.085Z,7.72
2023-03-10T15:32:05.632Z,7.66
2023-03-10T15:34:35.397Z,7.23
2023-03-10T15:37:07.459Z,7.35
2023-03-10T15:39:38.554Z,7.26
2023-03-10T15:42:08.077Z,7.13
2023-03-10T15:44:37.317Z,7.13
2023-03-10T15:47:09.500Z,7.12
2023-03-10T15:49:41.095Z,6.85
2023-03-10T15:52:16.696Z,6.35
2023-03-10T15:54:47.465Z,6.79
2023-03-10T15:57:17.145Z,6.93
2023-03-10T15:59:47.157Z,6.90
2023-03-10T16:02:16.735Z,6.64
2023-03-10T16:05:18.940Z,6.57
2023-03-10T16:07:51.533Z,6.72
2023-03-10T16:10:27.783Z,6.56
2023-03-10T16:13:01.122Z,6.75
2023-03-10T16:15:30.672Z,6.46
2023-03-10T16:18:02.164Z,6.33
2023-03-10T16:20:44.664Z,6.16
2023-03-10T16:23:14.778Z,5.51
2023-03-10T16:25:45.418Z,6.68
2023-03-10T16:28:14.995Z,6.62
2023-03-10T16:30:44.780Z,6.46
2023-03-10T16:33:18.430Z,6.18
2023-03-10T16:35:48.717Z,6.58
2023-03-10T16:38:18.237Z,6.32
2023-03-10T16:40:54.537Z,6.24
2023-03-10T16:43:25.971Z,6.57
2023-03-10T16:46:08.316Z,6.52
2023-03-10T16:48:42.294Z,6.31
2023-03-10T16:51:25.135Z,6.22
2023-03-10T16:53:59.159Z,5.18
2023-03-10T16:56:32.237Z,5.62
2023-03-10T16:59:32.552Z,5.87
2023-03-10T17:02:03.021Z,6.39
2023-03-10T17:04:33.394Z,5.86
2023-03-10T17:07:07.450Z,5.17
2023-03-10T17:09:38.345Z,5.28
2023-03-10T17:12:15.132Z,5.11
2023-03-10T17:14:48.962Z,5.95
2023-03-10T17:17:19.163Z,6.02
2023-03-10T17:19:51.892Z,5.77
2023-03-10T17:22:30.855Z,6.36
2023-03-10T17:25:01.045Z,6.20
2023-03-10T17:27:37.035Z,6.44
2023-03-10T17:30:07.798Z,5.66
2023-03-10T17:32:40.934Z,5.76
2023-03-10T17:35:13.913Z,6.47
2023-03-10T17:37:49.117Z,6.17
2023-03-10T17:40:21.846Z,6.43
2023-03-10T17:43:17.336Z,6.21
2023-03-10T17:45:57.523Z,5.92
2023-03-10T17:48:27.710Z,6.30
2023-03-10T17:50:57.611Z,6.20
2023-03-10T17:53:28.429Z,6.15
2023-03-10T17:56:05.470Z,6.27
2023-03-10T17:58:37.051Z,6.36
2023-03-10T18:01:12.628Z,6.13
2023-03-10T18:03:42.049Z,6.21
2023-03-10T18:06:15.821Z,6.18
2023-03-10T18:08:45.165Z,6.34
2023-03-10T18:11:14.966Z,6.18
2023-03-10T18:13:46.283Z,6.20
2023-03-10T18:16:18.067Z,6.19
2023-03-10T18:18:48.162Z,6.26
2023-03-10T18:21:19.301Z,6.01
2023-03-10T18:23:51.515Z,6.30
2023-03-10T18:26:24.162Z,6.11
2023-03-10T18:28:55.191Z,6.27
2023-03-10T18:31:26.678Z,6.35
2023-03-10T18:33:56.540Z,6.16
2023-03-10T18:36:28.289Z,6.11
2023-03-10T18:38:58.564Z,6.06
2023-03-10T18:41:31.060Z,6.03
2023-03-10T18:44:02.202Z,6.11
2023-03-10T18:46:31.852Z,6.12
2023-03-10T18:49:03.249Z,6.02
2023-03-10T18:51:33.357Z,5.99
2023-03-10T18:54:05.880Z,5.87
2023-03-10T18:56:37.395Z,6.17
2023-03-10T18:59:09.272Z,6.01
2023-03-10T19:01:39.677Z,6.05
2023-03-10T19:04:10.303Z,5.83
2023-03-10T19:06:40.581Z,5.57
2023-03-10T19:09:10.208Z,5.58
2023-03-10T19:11:40.188Z,5.88
2023-03-10T19:14:12.927Z,5.60
2023-03-10T19:16:42.874Z,5.32
2023-03-10T19:19:13.075Z,5.45
2023-03-10T19:21:44.345Z,5.53
2023-03-10T19:24:13.777Z,5.44
2023-03-10T19:27:07.821Z,5.75
2023-03-10T19:29:42.840Z,5.53
2023-03-10T19:32:12.025Z,5.35
2023-03-10T19:34:41.974Z,5.55
2023-03-10T19:37:12.639Z,5.47
2023-03-10T19:39:45.556Z,5.56
2023-03-10T19:42:18.971Z,5.18
2023-03-10T19:44:50.098Z,5.13
2023-03-10T19:47:19.624Z,5.25
2023-03-10T19:49:52.671Z,4.77
2023-03-10T19:52:23.851Z,5.44
2023-03-10T19:55:00.847Z,5.37
2023-03-10T19:57:30.399Z,5.30
2023-03-10T20:00:01.540Z,5.34
2023-03-10T20:02:34.028Z,5.38
2023-03-10T20:05:03.957Z,5.28
2023-03-10T20:07:50.278Z,4.74
2023-03-10T20:10:23.420Z,5.36
2023-03-10T20:12:53.858Z,5.37
2023-03-10T20:15:28.070Z,5.32
2023-03-10T20:17:58.808Z,5.29
2023-03-10T20:20:28.941Z,5.26
2023-03-10T20:22:58.209Z,5.40
2023-03-10T20:25:28.158Z,5.09
2023-03-10T20:28:00.190Z,5.39
2023-03-10T20:30:44.405Z,5.32
2023-03-10T20:33:22.823Z,4.36
2023-03-10T20:35:57.638Z,4.23
2023-03-10T20:38:43.172Z,5.06
2023-03-10T20:41:13.455Z,4.28
2023-03-10T20:43:44.082Z,5.09
2023-03-10T20:46:17.666Z,5.24
2023-03-10T20:48:49.798Z,5.26
2023-03-10T20:51:23.519Z,5.26
2023-03-10T20:53:57.161Z,4.67
2023-03-10T20:56:26.512Z,4.69
2023-03-10T20:58:59.581Z,5.09
2023-03-10T21:02:00.692Z,5.13
2023-03-10T21:04:36.037Z,5.15
2023-03-10T21:07:11.628Z,4.35
2023-03-10T21:09:47.836Z,4.68
2023-03-10T21:12:23.324Z,5.24
2023-03-10T21:14:52.756Z,5.06
2023-03-10T21:17:24.688Z,4.98
2023-03-10T21:19:54.110Z,5.26
2023-03-10T21:22:23.512Z,5.14
2023-03-10T21:24:53.305Z,5.14
2023-03-10T21:27:27.491Z,5.14
2023-03-10T21:29:57.532Z,5.25
2023-03-10T21:32:31.226Z,4.98
2023-03-10T21:35:00.962Z,4.91
2023-03-10T21:37:30.291Z,5.32
2023-03-10T21:40:05.504Z,5.27
2023-03-10T21:42:41.193Z,4.72
2023-03-10T21:45:13.022Z,5.08
2023-03-10T21:47:44.869Z,5.17
2023-03-10T21:50:16.237Z,5.28
2023-03-10T21:52:45.994Z,5.38
2023-03-10T21:55:20.118Z,5.42
2023-03-10T21:57:50.292Z,5.48
2023-03-10T22:00:23.414Z,5.54
2023-03-10T22:03:04.307Z,5.44
2023-03-10T22:05:33.623Z,5.33
2023-03-10T22:08:02.745Z,5.30
2023-03-10T22:10:32.161Z,5.11
2023-03-10T22:13:04.173Z,5.28
2023-03-10T22:15:34.383Z,5.42
2023-03-10T22:18:05.470Z,5.49
2023-03-10T22:20:37.498Z,5.48
2023-03-10T22:23:08.000Z,5.39
2023-03-10T22:25:37.458Z,5.42
2023-03-10T22:28:06.855Z,5.27
2023-03-10T22:30:37.107Z,5.42
2023-03-10T22:33:08.180Z,5.18
2023-03-10T22:35:38.144Z,5.29
2023-03-10T22:38:07.992Z,5.21
2023-03-10T22:40:37.232Z,5.07
2023-03-10T22:43:06.558Z,5.14
2023-03-10T22:45:36.131Z,5.26
2023-03-10T22:48:08.766Z,5.02
2023-03-10T22:50:40.442Z,5.40
2023-03-10T22:53:15.488Z,5.24
2023-03-10T22:55:46.647Z,5.28
2023-03-10T22:58:19.693Z,5.31
2023-03-10T23:00:49.673Z,5.25
2023-03-10T23:03:20.377Z,5.13
2023-03-10T23:05:51.957Z,5.49
2023-03-10T23:08:21.613Z,5.49
2023-03-10T23:10:51.018Z,5.32
2023-03-10T23:13:20.406Z,5.26
2023-03-10T23:15:49.872Z,5.53
2023-03-10T23:18:21.645Z,5.54
2023-03-10T23:20:53.047Z,5.61
2023-03-10T23:23:22.216Z,5.88
2023-03-10T23:25:52.124Z,5.90
2023-03-10T23:28:22.339Z,5.87
2023-03-10T23:30:54.561Z,5.93
2023-03-10T23:33:25.839Z,5.88
2023-03-10T23:35:55.168Z,5.88
2023-03-10T23:38:26.403Z,5.85
2023-03-10T23:40:56.253Z,5.89
2023-03-10T23:43:25.516Z,5.70
2023-03-10T23:45:54.877Z,5.69
2023-03-10T23:48:26.156Z,5.79
2023-03-10T23:50:57.470Z,5.83
2023-03-10T23:53:28.629Z,5.75
2023-03-10T23:55:59.097Z,5.43
2023-03-10T23:58:30.906Z,5.37
